This is the latest recevied weather packets stored in our database for station/object W5HKR. If no packets are shown the sender has not sent any weather packets the latest 10 day(s).
| Time | Temp. | Humidity | Pressure | Rain* | Wind** | Luminosity | Snow |
|---|---|---|---|---|---|---|---|
| 1778237601 | 18.33° C | 91% | 990.6 hPa | 0 mm | - | - | - |
| 1778237301 | 17.22° C | 82% | 986.1 hPa | 0 mm | - | - | - |
| 1778237001 | 18.33° C | 91% | 990.6 hPa | 0 mm | - | - | - |
| 1778236792 | 18.33° C | 91% | 990.6 hPa | 0 mm | - | - | - |
| 1778236701 | 17.22° C | 80% | 985.5 hPa | 0 mm | - | - | - |
| 1778236402 | 17.22° C | 80% | 985.2 hPa | 0 mm | - | - | - |
| 1778236102 | 18.33° C | 91% | 990.6 hPa | 0 mm | - | - | - |
| 1778235801 | 17.22° C | 79% | 984.8 hPa | 0 mm | - | - | - |
| 1778235711 | 17.22° C | 79% | 985.4 hPa | 0 mm | - | - | - |
| 1778235501 | 17.22° C | 80% | 985.1 hPa | 0 mm | - | - | - |
| 1778235201 | 17.22° C | 81% | 985.6 hPa | 0 mm | - | - | - |
| 1778234900 | 17.22° C | 81% | 985.1 hPa | 0 mm | - | - | - |
| 1778234632 | 18.33° C | 91% | 990.6 hPa | 0 mm | - | - | - |
| 1778234601 | 18.33° C | 91% | 990.6 hPa | 0 mm | - | - | - |
| 1778234302 | 17.22° C | 79% | 984.6 hPa | 0 mm | - | - | - |
| 1778234001 | 17.22° C | 78% | 984.3 hPa | 0 mm | - | - | - |
| 1778233701 | 17.22° C | 78% | 984.3 hPa | 0 mm | - | - | - |
| 1778233552 | 17.22° C | 77% | 984.7 hPa | 0 mm | - | - | - |
| 1778233400 | 17.22° C | 77% | 984.8 hPa | 0 mm | - | - | - |
| 1778233102 | 17.78° C | 76% | 985.4 hPa | 0 mm | - | - | - |
| 1778232802 | 17.78° C | 75% | 985.2 hPa | 0 mm | - | - | - |
| 1778232473 | 18.33° C | 91% | 990.6 hPa | 0 mm | - | - | - |
| 1778232201 | 18.33° C | 91% | 990.6 hPa | 0 mm | - | - | - |
| 1778231900 | 17.78° C | 76% | 985.1 hPa | 0 mm | - | - | - |
| 1778231600 | 17.78° C | 75% | 985.8 hPa | 0 mm | - | - | - |
* Rain latest hour (hover to see other rain measurements)
** Current wind speed in m/s (hover to see current wind gust speed)